Latest Weather Observations for Launceston Airport

IDT60801

Issued at 3:35 pm EST Thursday 24 April 2014 (issued every 30 minutes, with the page automatically refreshed every 10 minutes)

About weather observations | Map of weather stations | Latest weather observations for TAS | Other Formats
Station Details ID: 091311 Name: LAUNCESTON AIRPORT Lat: -41.55 Lon: 147.21 Height: 166.9 m
Data from the previous 72 hours. | See also: Recent months at Launceston Airport
Date/Time
EST
Temp
°C
App
Temp
°C
Dew
Point
Rel
Hum
%
Delta-T
°C
Wind Press
QNH
hPa
Press
MSL
hPa
Rain
since 9 am
mm
Dir
 
Spd
km/h
Gust
km/h
Spd
kts
Gust
kts
24/03:30pm 11.7 5.8 -1.1 41 5.2 SW 20 28 11 15 1012.0 - 0.0
24/03:00pm 11.6 5.9 -0.9 42 5.1 WNW 19 24 10 13 1011.6 1011.7 0.0
24/02:30pm 12.3 6.6 -0.9 40 5.4 WSW 19 28 10 15 1010.8 - 0.0
24/02:00pm 12.4 6.9 0.8 45 4.9 W 19 28 10 15 1010.4 - 0.0
24/01:30pm 12.0 6.4 1.3 48 4.6 SW 20 28 11 15 1009.9 - 0.0
24/01:03pm 14.2 6.1 -0.3 37 6.1 WSW 32 50 17 27 1009.2 - 0.0
24/01:00pm 13.6 5.2 -1.2 36 6.1 WSW 33 50 18 27 1009.0 - 0.0
24/12:53pm 13.2 5.3 -1.5 36 6.0 WSW 30 48 16 26 1008.9 - 0.0
24/12:30pm 13.4 5.3 -0.6 38 5.8 W 32 44 17 24 1008.7 - 0.0
24/12:00pm 13.4 7.5 4.0 53 4.3 WNW 24 33 13 18 1008.4 1008.5 0.0
24/11:30am 12.3 4.5 2.7 52 4.2 W 33 44 18 24 1008.0 - 0.0
24/11:00am 12.5 5.0 3.2 53 4.2 WNW 32 44 17 24 1007.3 - 0.0
24/10:30am 12.0 4.2 3.0 54 4.0 WNW 33 43 18 23 1006.7 - 0.0
24/10:00am 12.1 4.8 4.3 59 3.6 W 32 43 17 23 1006.2 - 0.0
24/09:30am 11.5 5.2 5.6 67 2.8 WNW 28 39 15 21 1005.7 - 0.0
24/09:00am 11.2 4.7 6.3 72 2.3 WNW 30 41 16 22 1005.3 1005.4 5.4
24/08:30am 10.2 4.3 7.4 83 1.3 NW 28 35 15 19 1005.0 - 5.4
24/08:00am 9.0 3.7 7.0 87 0.9 NNW 24 30 13 16 1004.3 - 5.4
24/07:30am 8.2 3.7 6.3 88 0.9 NNW 19 24 10 13 1003.6 - 5.4
24/07:00am 8.6 4.0 6.4 86 1.0 NNW 20 28 11 15 1003.0 - 5.4
24/06:30am 8.8 3.8 6.4 85 1.1 N 22 30 12 16 1003.6 - 5.2
24/06:00am 9.9 3.1 7.5 85 1.2 W 33 46 18 25 1003.0 1003.1 5.0
24/05:41am 10.7 3.9 7.9 83 1.4 W 33 50 18 27 1002.0 - 5.0
24/05:30am 11.6 5.8 9.3 86 1.2 WNW 30 54 16 29 1001.6 - 5.0
24/05:28am 12.1 5.6 10.3 89 0.9 WNW 35 54 19 29 1001.6 - 5.0
24/05:27am 12.3 5.6 10.9 91 0.7 WNW 37 54 20 29 1001.5 - 5.0
24/05:05am 12.3 5.5 10.7 90 0.8 NNW 37 57 20 31 1000.8 - 1.8
24/05:04am 12.2 5.8 10.6 90 0.8 NNW 35 54 19 29 1001.0 - 1.8
24/05:00am 12.5 5.6 10.4 87 1.1 NNW 37 52 20 28 1001.0 - 1.2
24/04:42am 12.9 6.3 9.9 82 1.6 N 35 54 19 29 1000.8 - 0.6
24/04:30am 12.6 5.2 10.0 84 1.3 NNW 39 54 21 29 1001.2 - 0.6
24/04:00am 12.5 5.9 9.9 84 1.3 NNW 35 54 19 29 1001.2 - 0.2
24/03:56am 12.6 6.0 10.0 84 1.4 N 35 54 19 29 1001.3 - 0.2
24/03:30am 12.2 5.8 9.4 83 1.4 N 33 43 18 23 1001.9 - 0.2
24/03:00am 12.0 6.5 9.2 83 1.4 N 28 41 15 22 1002.9 1003.0 0.2
24/02:30am 11.7 6.7 9.6 87 1.1 NNW 26 33 14 18 1004.0 - 0.2
24/02:00am 10.9 7.2 9.3 90 0.8 NNW 19 26 10 14 1004.9 - 0.2
24/01:30am 9.8 5.8 8.2 90 0.8 N 19 20 10 11 1005.7 - 0.2
24/01:00am 10.7 7.3 9.3 91 0.7 NNW 17 19 9 10 1006.6 - 0.2
24/12:30am 10.6 6.8 8.9 89 0.8 NNW 19 26 10 14 1007.0 - 0.0
24/12:00am 10.5 6.8 9.3 92 0.6 NNW 19 24 10 13 1007.3 1007.3 0.0
 
Date/Time
EST
Temp
°C
App
Temp
°C
Dew
Point
Rel
Hum
%
Delta-T
°C
Wind Press
QNH
hPa
Press
MSL
hPa
Rain
since 9 am
mm
Dir
 
Spd
km/h
Gust
km/h
Spd
kts
Gust
kts
23/11:30pm 10.2 6.2 9.1 93 0.5 NNW 20 24 11 13 1007.9 - 0.0
23/11:00pm 10.0 6.5 8.8 92 0.6 NNW 17 22 9 12 1008.5 - 0.0
23/10:30pm 10.8 7.1 9.4 91 0.7 NNW 19 22 10 12 1008.9 - 0.0
23/10:00pm 10.4 7.2 9.8 96 0.3 NNW 17 20 9 11 1009.3 - 0.0
23/09:30pm 9.3 6.5 8.4 94 0.4 N 13 17 7 9 1009.6 - 0.0
23/09:00pm 9.8 7.1 8.9 94 0.4 N 13 17 7 9 1010.0 1010.1 0.0
23/08:30pm 10.5 6.7 9.1 91 0.7 N 19 22 10 12 1010.3 - 0.0
23/08:16pm 10.8 8.4 9.9 94 0.5 NNW 13 20 7 11 1010.4 - 0.0
23/08:05pm 10.7 8.3 9.9 95 0.4 NW 13 15 7 8 1010.4 - 0.0
23/08:00pm 10.5 8.0 9.7 95 0.4 NNW 13 17 7 9 1010.5 - 0.0
23/07:30pm 10.4 7.1 9.5 94 0.5 N 17 20 9 11 1010.6 - 0.0
23/07:00pm 10.6 7.3 9.7 94 0.5 N 17 20 9 11 1010.7 - 0.0
23/06:30pm 11.1 7.3 9.7 91 0.7 N 20 28 11 15 1010.7 - 0.0
23/06:00pm 11.5 7.1 9.1 85 1.2 N 22 32 12 17 1010.9 1011.0 0.0
23/05:30pm 11.5 7.6 8.7 83 1.4 N 19 24 10 13 1010.9 - 0.0
23/05:00pm 12.2 6.5 8.3 77 1.9 NNW 28 35 15 19 1011.0 - 0.0
23/04:30pm 13.6 8.5 7.8 68 2.9 NNW 24 33 13 18 1010.9 - 0.0
23/04:00pm 13.4 8.8 8.0 70 2.7 N 22 30 12 16 1011.1 - 0.0
23/03:30pm 13.7 7.6 8.3 70 2.7 NNW 30 39 16 21 1011.4 - 0.0
23/03:00pm 14.1 8.4 6.9 62 3.5 NNW 26 35 14 19 1011.4 1011.5 0.0
23/02:30pm 14.6 8.6 7.2 61 3.7 NNW 28 35 15 19 1011.5 - 0.0
23/02:00pm 14.9 9.0 7.5 61 3.7 NNW 28 35 15 19 1011.7 - 0.0
23/01:30pm 15.2 9.5 8.4 64 3.5 N 28 33 15 18 1012.3 - 0.0
23/01:00pm 15.1 9.3 8.1 63 3.5 NNW 28 35 15 19 1012.8 - 0.0
23/12:30pm 14.9 8.3 7.9 63 3.5 NNW 32 39 17 21 1013.1 - 0.0
23/12:00pm 15.4 9.4 7.2 58 4.1 NNW 28 35 15 19 1013.3 1013.4 0.0
23/11:30am 15.1 10.2 8.3 64 3.5 NNW 24 33 13 18 1013.8 - 0.0
23/11:00am 14.3 9.6 7.6 64 3.3 N 22 32 12 17 1014.3 - 0.0
23/10:30am 13.2 8.0 7.2 67 2.9 NNW 24 28 13 15 1014.7 - 0.0
23/10:00am 11.8 8.9 8.3 79 1.7 NNE 13 17 7 9 1015.2 - 0.0
23/09:30am 10.4 7.4 7.5 82 1.4 N 13 17 7 9 1015.5 - 0.0
23/09:00am 10.0 8.1 8.9 93 0.5 N 9 11 5 6 1015.6 1015.7 0.2
23/08:30am 8.1 5.7 7.0 93 0.5 N 9 11 5 6 1015.4 - 0.2
23/08:00am 6.6 4.0 6.0 96 0.3 N 9 11 5 6 1015.4 - 0.2
23/07:30am 3.1 -0.2 2.4 95 0.3 NNW 9 13 5 7 1015.3 - 0.2
23/07:13am 4.2 2.8 3.6 96 0.3 CALM 0 0 0 0 1015.1 - 0.2
23/07:00am 3.9 1.3 3.3 96 0.2 N 6 7 3 4 1015.1 - 0.2
23/06:43am 3.3 0.0 2.6 95 0.3 N 9 11 5 6 1015.0 - 0.2
23/06:30am 3.7 1.8 3.0 95 0.3 N 2 7 1 4 1014.9 - 0.2
23/06:27am 4.8 3.5 4.1 95 0.3 CALM 0 0 0 0 1014.9 - 0.2
23/06:09am 4.5 3.1 3.6 94 0.4 CALM 0 0 0 0 1015.0 - 0.2
23/06:00am 4.8 3.5 4.1 95 0.3 CALM 0 0 0 0 1015.0 1015.1 0.2
23/05:56am 5.0 3.7 4.3 95 0.3 CALM 0 0 0 0 1014.9 - 0.2
23/05:42am 4.5 2.7 3.6 94 0.4 N 2 6 1 3 1015.1 - 0.2
23/05:30am 5.1 3.9 4.4 95 0.3 CALM 0 7 0 4 1015.1 - 0.2
23/05:29am 5.0 3.7 4.3 95 0.3 CALM 0 6 0 3 1015.1 - 0.2
23/05:14am 5.0 3.4 4.3 95 0.3 N 2 6 1 3 1015.1 - 0.2
23/05:07am 3.5 0.7 2.2 91 0.5 N 6 7 3 4 1015.0 - 0.2
23/05:01am 4.1 1.5 3.1 93 0.4 N 6 7 3 4 1015.0 - 0.2
23/05:00am 4.3 1.7 3.3 93 0.4 N 6 7 3 4 1015.0 - 0.2
23/04:30am 4.5 1.3 3.3 92 0.5 N 9 11 5 6 1015.0 - 0.2
23/04:00am 4.7 1.6 3.8 94 0.4 N 9 9 5 5 1015.0 - 0.2
23/03:30am 5.6 3.1 4.7 94 0.4 NNW 7 9 4 5 1015.0 - 0.2
23/03:00am 6.1 3.4 5.5 96 0.3 NW 9 11 5 6 1014.9 1015.0 0.2
23/02:30am 4.7 2.0 3.5 92 0.5 NNW 7 9 4 5 1015.1 - 0.2
23/02:00am 6.0 3.5 4.6 91 0.6 N 7 9 4 5 1015.4 - 0.2
23/01:30am 7.0 4.1 4.8 86 1.0 N 9 11 5 6 1015.5 - 0.2
23/01:00am 6.6 4.3 4.9 89 0.7 NNW 6 7 3 4 1015.5 - 0.2
23/12:30am 4.9 1.3 3.1 88 0.7 NNW 11 11 6 6 1015.4 - 0.2
23/12:00am 5.7 1.8 3.4 85 1.0 NNW 13 13 7 7 1015.2 1015.3 0.2
 
Date/Time
EST
Temp
°C
App
Temp
°C
Dew
Point
Rel
Hum
%
Delta-T
°C
Wind Press
QNH
hPa
Press
MSL
hPa
Rain
since 9 am
mm
Dir
 
Spd
km/h
Gust
km/h
Spd
kts
Gust
kts
22/11:30pm 5.8 2.4 3.8 87 0.9 NNW 11 13 6 7 1015.1 - 0.2
22/11:00pm 4.8 1.2 2.7 86 0.9 N 11 13 6 7 1015.0 - 0.2
22/10:30pm 5.9 2.3 3.1 82 1.2 NNW 11 13 6 7 1015.0 - 0.2
22/10:00pm 6.3 3.3 4.0 85 1.0 N 9 11 5 6 1014.9 - 0.2
22/09:30pm 5.5 1.5 3.0 84 1.0 NNW 13 15 7 8 1014.5 - 0.2
22/09:00pm 6.0 2.3 2.6 79 1.4 N 11 13 6 7 1014.2 1014.3 0.2
22/08:30pm 7.1 3.5 2.8 74 1.8 N 11 13 6 7 1013.8 - 0.2
22/08:00pm 7.0 2.2 2.5 73 1.9 NW 17 20 9 11 1013.4 - 0.2
22/07:30pm 9.7 6.2 3.7 66 2.6 NNW 11 13 6 7 1013.1 - 0.2
22/07:00pm 9.8 6.4 4.0 67 2.6 NW 11 13 6 7 1012.9 - 0.2
22/06:30pm 8.6 4.0 3.6 71 2.2 NNW 17 19 9 10 1012.3 - 0.2
22/06:00pm 9.8 6.0 3.8 66 2.7 N 13 15 7 8 1011.6 1011.7 0.2
22/05:30pm 13.7 8.2 4.0 52 4.5 WNW 22 32 12 17 1010.9 - 0.2
22/05:00pm 14.8 9.4 4.5 50 4.8 WNW 22 30 12 16 1010.4 - 0.2
22/04:30pm 15.8 9.3 4.8 48 5.2 WNW 28 37 15 20 1010.1 - 0.2
22/04:00pm 16.6 9.9 5.6 48 5.3 WNW 30 41 16 22 1009.7 - 0.2
22/03:30pm 17.5 11.9 7.0 50 5.3 WNW 26 37 14 20 1009.5 - 0.2
22/03:00pm 17.8 12.4 6.3 47 5.7 WNW 24 39 13 21 1009.1 1009.2 0.2
22/02:30pm 16.8 12.3 10.2 65 3.5 NNW 24 30 13 16 1008.8 - 0.2
22/02:00pm 17.2 11.8 9.4 60 4.1 NNW 28 39 15 21 1008.7 - 0.2
22/01:30pm 18.7 13.8 9.8 56 4.8 NNW 26 37 14 20 1008.7 - 0.2
22/01:00pm 18.8 12.9 9.0 53 5.2 NNW 30 41 16 22 1008.6 - 0.2
22/12:30pm 17.1 11.1 8.8 58 4.3 NW 30 39 16 21 1008.6 - 0.2
22/12:00pm 17.7 12.4 9.8 60 4.2 NNW 28 39 15 21 1008.8 1008.9 0.2
22/11:30am 18.2 13.3 12.4 69 3.2 NNW 30 41 16 22 1008.9 - 0.2
22/11:00am 17.7 12.6 13.8 78 2.2 NNW 33 48 18 26 1008.8 - 0.2
22/10:36am 16.6 12.4 13.5 82 1.8 NNW 28 39 15 21 1008.9 - 0.0
22/10:30am 16.6 13.3 14.1 85 1.4 NNW 24 35 13 19 1009.0 - 0.0
22/10:07am 15.2 12.3 14.1 93 0.6 NNW 22 32 12 17 1008.7 - 0.0
22/10:00am 14.9 11.5 13.8 93 0.6 NNW 24 32 13 17 1008.7 - 0.0
22/09:30am 14.7 10.6 13.9 95 0.5 NNW 28 37 15 20 1008.7 - 0.0
22/09:00am 14.5 9.5 13.5 94 0.6 NNW 32 43 17 23 1008.7 1008.8 11.8
22/08:30am 14.5 9.6 13.7 95 0.5 NNW 32 43 17 23 1008.5 - 11.8
22/08:22am 14.5 9.4 13.7 95 0.5 NNW 33 44 18 24 1008.4 - 11.8
22/08:00am 14.4 9.5 13.6 95 0.4 NNW 32 44 17 24 1008.2 - 11.8
22/07:30am 14.2 10.4 13.6 96 0.3 NNW 26 33 14 18 1008.1 - 11.8
22/07:00am 14.0 9.8 13.4 96 0.3 N 28 37 15 20 1007.4 - 11.8
22/06:30am 13.8 9.4 13.0 95 0.4 N 28 35 15 19 1007.2 - 11.6
22/06:00am 13.8 8.7 13.0 95 0.4 N 32 44 17 24 1007.3 1007.3 11.6
22/05:54am 13.8 8.7 13.0 95 0.4 N 32 43 17 23 1007.1 - 11.6
22/05:30am 13.9 9.0 12.5 91 0.8 N 30 37 16 20 1007.3 - 11.2
22/05:00am 14.9 8.8 11.9 82 1.6 NNW 35 50 19 27 1007.5 - 10.4
22/04:42am 15.0 9.4 12.1 83 1.6 NNW 33 52 18 28 1007.2 - 10.4
22/04:30am 14.9 9.4 12.4 85 1.4 NNW 33 44 18 24 1007.2 - 10.4
22/04:00am 14.4 9.0 12.1 86 1.3 NNW 32 39 17 21 1006.8 - 10.4
22/03:30am 14.5 8.8 11.8 84 1.5 N 33 44 18 24 1006.9 - 10.4
22/03:00am 14.4 8.3 11.9 85 1.4 N 35 43 19 23 1007.2 1007.2 10.4
22/02:30am 14.1 8.5 12.0 87 1.1 N 33 44 18 24 1007.3 - 10.4
22/02:00am 14.2 7.5 12.2 88 1.1 N 39 48 21 26 1007.9 - 10.4
22/01:30am 13.7 7.3 11.9 89 1.0 N 37 48 20 26 1008.1 - 10.4
22/01:00am 13.8 7.8 12.0 89 1.0 N 35 44 19 24 1008.5 - 10.4
22/12:49am 13.8 8.4 12.2 90 0.9 N 32 44 17 24 1008.8 - 10.4
22/12:32am 13.5 7.9 12.1 91 0.8 N 33 44 18 24 1009.3 - 10.4
22/12:30am 13.6 8.0 12.0 90 0.9 N 33 44 18 24 1009.3 - 10.4
22/12:00am 14.0 6.7 11.7 86 1.2 N 41 56 22 30 1009.4 1009.5 10.0
 
Date/Time
EST
Temp
°C
App
Temp
°C
Dew
Point
Rel
Hum
%
Delta-T
°C
Wind Press
QNH
hPa
Press
MSL
hPa
Rain
since 9 am
mm
Dir
 
Spd
km/h
Gust
km/h
Spd
kts
Gust
kts
21/11:30pm 12.9 7.7 11.5 91 0.7 NNW 30 44 16 24 1009.8 - 10.0
21/11:00pm 11.3 7.4 10.8 97 0.3 NNW 22 30 12 16 1010.4 - 10.0
21/10:42pm 11.0 7.6 10.5 97 0.3 N 19 22 10 12 1010.6 - 9.8
21/10:30pm 8.7 7.2 8.3 97 0.2 SSW 6 17 3 9 1010.7 - 9.8
21/10:00pm 7.9 6.0 7.5 97 0.2 S 7 9 4 5 1011.2 - 9.8
21/09:42pm 7.8 5.9 7.4 97 0.2 S 7 11 4 6 1011.9 - 9.8
21/09:41pm 7.9 6.0 7.5 97 0.2 S 7 11 4 6 1011.9 - 9.8
21/09:37pm 7.8 5.9 7.4 97 0.2 S 7 9 4 5 1011.9 - 9.6
21/09:30pm 7.8 5.8 7.2 96 0.3 SSE 7 9 4 5 1011.8 - 9.6
21/09:24pm 7.9 6.0 7.5 97 0.2 SSE 7 9 4 5 1011.9 - 9.6
21/09:14pm 7.9 6.2 7.5 97 0.2 S 6 9 3 5 1012.0 - 9.6
21/09:06pm 7.8 5.9 7.4 97 0.2 S 7 11 4 6 1012.3 - 9.6
21/09:00pm 7.7 5.7 7.1 96 0.3 S 7 11 4 6 1012.5 1012.5 9.6
21/08:49pm 7.6 5.6 7.0 96 0.3 SSW 7 9 4 5 1012.4 - 9.6
21/08:31pm 7.5 6.4 6.9 96 0.3 ESE 2 7 1 4 1012.5 - 9.4
21/08:30pm 7.5 6.4 6.9 96 0.3 E 2 7 1 4 1012.5 - 9.4
21/08:01pm 7.5 5.5 6.9 96 0.3 NE 7 11 4 6 1013.1 - 9.4
21/08:00pm 7.5 5.5 6.9 96 0.3 NE 7 11 4 6 1013.1 - 9.4
21/07:30pm 7.5 5.6 6.8 95 0.3 WNW 6 13 3 7 1013.4 - 8.4
21/07:08pm 7.4 5.5 6.7 95 0.3 SW 6 9 3 5 1013.1 - 6.0
21/07:00pm 7.5 5.4 6.8 95 0.3 SSW 7 9 4 5 1013.3 - 5.6
21/06:54pm 7.4 5.3 6.7 95 0.3 S 7 9 4 5 1013.2 - 5.6
21/06:30pm 7.4 4.5 6.7 95 0.3 SW 11 13 6 7 1013.3 - 4.6
21/06:15pm 7.4 3.8 6.7 95 0.3 SSW 15 20 8 11 1013.1 - 3.8
21/06:06pm 7.4 4.2 6.7 95 0.3 SW 13 20 7 11 1013.2 - 3.4
21/06:00pm 7.3 4.0 6.4 94 0.4 SW 13 17 7 9 1013.2 1013.3 3.4
21/05:48pm 7.4 4.5 6.5 94 0.4 S 11 13 6 7 1012.9 - 3.0
21/05:43pm 7.4 4.5 6.3 93 0.5 SSW 11 13 6 7 1013.0 - 2.6
21/05:30pm 7.3 4.7 6.2 93 0.5 SSW 9 15 5 8 1013.0 - 2.6
21/05:00pm 7.3 4.7 6.1 92 0.5 S 9 13 5 7 1013.5 - 2.0
21/04:30pm 7.4 4.8 6.0 91 0.6 S 9 13 5 7 1014.0 - 1.2
21/04:00pm 7.7 4.7 5.8 88 0.9 S 11 13 6 7 1014.2 - 0.6
21/03:57pm 7.8 4.8 5.9 88 0.9 S 11 13 6 7 1014.2 - 0.6

Other Formats:

Comma delimited format used in spreadsheet applications
http://www.bom.gov.au/fwo/IDT60801/IDT60801.95966.axf

JavaScript Object Notation format (JSON) in row-major order
http://www.bom.gov.au/fwo/IDT60801/IDT60801.95966.json